sensor_id;sensor_type;location;lat;lon;timestamp;temperature;humidity
29891;DHT22;16759;49.540;8.642;2022-09-12T00:01:30;14.60;99.90
29891;DHT22;16759;49.540;8.642;2022-09-12T00:03:57;14.60;99.90
29891;DHT22;16759;49.540;8.642;2022-09-12T00:06:24;14.50;99.90
29891;DHT22;16759;49.540;8.642;2022-09-12T00:08:52;14.30;99.90
29891;DHT22;16759;49.540;8.642;2022-09-12T00:11:18;14.30;99.90
29891;DHT22;16759;49.540;8.642;2022-09-12T00:13:44;14.30;99.90
29891;DHT22;16759;49.540;8.642;2022-09-12T00:16:13;14.20;99.90
29891;DHT22;16759;49.540;8.642;2022-09-12T00:18:40;14.40;99.90
29891;DHT22;16759;49.540;8.642;2022-09-12T00:21:08;14.50;99.90
29891;DHT22;16759;49.540;8.642;2022-09-12T00:23:33;14.50;99.90
29891;DHT22;16759;49.540;8.642;2022-09-12T00:25:59;14.30;99.90
29891;DHT22;16759;49.540;8.642;2022-09-12T00:28:28;14.30;99.90
29891;DHT22;16759;49.540;8.642;2022-09-12T00:30:53;14.20;99.90
29891;DHT22;16759;49.540;8.642;2022-09-12T00:33:19;14.20;99.90
29891;DHT22;16759;49.540;8.642;2022-09-12T00:35:47;14.30;99.90
29891;DHT22;16759;49.540;8.642;2022-09-12T00:38:13;14.40;99.90
29891;DHT22;16759;49.540;8.642;2022-09-12T00:40:39;14.40;99.90
29891;DHT22;16759;49.540;8.642;2022-09-12T00:43:05;14.30;99.90
29891;DHT22;16759;49.540;8.642;2022-09-12T00:45:30;14.30;99.90
29891;DHT22;16759;49.540;8.642;2022-09-12T00:47:57;14.20;99.90
29891;DHT22;16759;49.540;8.642;2022-09-12T00:50:24;14.30;99.90
29891;DHT22;16759;49.540;8.642;2022-09-12T00:52:57;14.30;99.90
29891;DHT22;16759;49.540;8.642;2022-09-12T00:55:25;14.10;99.90
29891;DHT22;16759;49.540;8.642;2022-09-12T01:00:18;14.30;99.90
29891;DHT22;16759;49.540;8.642;2022-09-12T01:02:47;14.30;99.90
29891;DHT22;16759;49.540;8.642;2022-09-12T01:05:15;14.30;99.90
29891;DHT22;16759;49.540;8.642;2022-09-12T01:07:41;14.40;99.90
29891;DHT22;16759;49.540;8.642;2022-09-12T01:10:09;14.40;99.90
29891;DHT22;16759;49.540;8.642;2022-09-12T01:12:37;14.30;99.90
29891;DHT22;16759;49.540;8.642;2022-09-12T01:15:04;14.40;99.90
29891;DHT22;16759;49.540;8.642;2022-09-12T01:17:36;14.40;99.90
29891;DHT22;16759;49.540;8.642;2022-09-12T01:20:15;14.50;99.90
29891;DHT22;16759;49.540;8.642;2022-09-12T01:25:31;14.40;99.90
29891;DHT22;16759;49.540;8.642;2022-09-12T01:33:19;14.30;99.90
29891;DHT22;16759;49.540;8.642;2022-09-12T01:45:52;14.30;99.90
29891;DHT22;16759;49.540;8.642;2022-09-12T01:48:25;14.30;99.90
29891;DHT22;16759;49.540;8.642;2022-09-12T01:50:53;14.20;99.90
29891;DHT22;16759;49.540;8.642;2022-09-12T01:53:22;14.20;99.90
29891;DHT22;16759;49.540;8.642;2022-09-12T01:56:02;14.30;99.90
29891;DHT22;16759;49.540;8.642;2022-09-12T01:58:37;14.30;99.90
29891;DHT22;16759;49.540;8.642;2022-09-12T02:01:05;14.30;99.90
29891;DHT22;16759;49.540;8.642;2022-09-12T02:03:33;14.40;99.90
29891;DHT22;16759;49.540;8.642;2022-09-12T02:06:04;14.40;99.90
29891;DHT22;16759;49.540;8.642;2022-09-12T02:08:32;14.20;99.90
29891;DHT22;16759;49.540;8.642;2022-09-12T02:15:57;14.20;99.90
29891;DHT22;16759;49.540;8.642;2022-09-12T02:18:30;14.30;99.90
29891;DHT22;16759;49.540;8.642;2022-09-12T02:20:58;14.30;99.90
29891;DHT22;16759;49.540;8.642;2022-09-12T02:23:28;14.30;99.90
29891;DHT22;16759;49.540;8.642;2022-09-12T02:25:56;14.30;99.90
29891;DHT22;16759;49.540;8.642;2022-09-12T02:28:25;14.20;99.90
29891;DHT22;16759;49.540;8.642;2022-09-12T02:30:58;14.30;99.90
29891;DHT22;16759;49.540;8.642;2022-09-12T02:39:07;14.30;99.90
29891;DHT22;16759;49.540;8.642;2022-09-12T02:41:33;14.30;99.90
29891;DHT22;16759;49.540;8.642;2022-09-12T02:43:59;14.30;99.90
29891;DHT22;16759;49.540;8.642;2022-09-12T02:46:30;14.60;99.90
29891;DHT22;16759;49.540;8.642;2022-09-12T02:48:56;14.60;99.90
29891;DHT22;16759;49.540;8.642;2022-09-12T02:51:22;14.60;99.90
29891;DHT22;16759;49.540;8.642;2022-09-12T02:53:49;14.40;99.90
29891;DHT22;16759;49.540;8.642;2022-09-12T02:56:19;14.30;99.90
29891;DHT22;16759;49.540;8.642;2022-09-12T02:58:45;14.30;99.90
29891;DHT22;16759;49.540;8.642;2022-09-12T03:01:14;14.30;99.90
29891;DHT22;16759;49.540;8.642;2022-09-12T03:03:53;14.30;99.90
29891;DHT22;16759;49.540;8.642;2022-09-12T03:14:18;14.30;99.90
29891;DHT22;16759;49.540;8.642;2022-09-12T03:19:22;14.20;99.90
29891;DHT22;16759;49.540;8.642;2022-09-12T03:24:34;14.20;99.90
29891;DHT22;16759;49.540;8.642;2022-09-12T03:29:30;14.10;99.90
29891;DHT22;16759;49.540;8.642;2022-09-12T03:31:59;14.30;99.90
29891;DHT22;16759;49.540;8.642;2022-09-12T03:34:25;14.30;99.90
29891;DHT22;16759;49.540;8.642;2022-09-12T03:36:51;13.90;99.90
29891;DHT22;16759;49.540;8.642;2022-09-12T03:39:17;13.80;99.90
29891;DHT22;16759;49.540;8.642;2022-09-12T03:41:42;13.80;99.90
29891;DHT22;16759;49.540;8.642;2022-09-12T03:44:08;13.80;99.90
29891;DHT22;16759;49.540;8.642;2022-09-12T03:46:33;13.70;99.90
29891;DHT22;16759;49.540;8.642;2022-09-12T03:48:59;13.50;99.90
29891;DHT22;16759;49.540;8.642;2022-09-12T03:51:29;13.40;99.90
29891;DHT22;16759;49.540;8.642;2022-09-12T03:53:55;13.40;99.90
29891;DHT22;16759;49.540;8.642;2022-09-12T03:56:20;13.40;99.90
29891;DHT22;16759;49.540;8.642;2022-09-12T03:58:46;13.40;99.90
29891;DHT22;16759;49.540;8.642;2022-09-12T04:01:17;13.20;99.90
29891;DHT22;16759;49.540;8.642;2022-09-12T04:03:44;13.20;99.90
29891;DHT22;16759;49.540;8.642;2022-09-12T04:06:11;13.10;99.90
29891;DHT22;16759;49.540;8.642;2022-09-12T04:08:37;13.10;99.90
29891;DHT22;16759;49.540;8.642;2022-09-12T04:11:04;13.00;99.90
29891;DHT22;16759;49.540;8.642;2022-09-12T04:13:30;12.90;99.90
29891;DHT22;16759;49.540;8.642;2022-09-12T04:15:56;13.00;99.90
29891;DHT22;16759;49.540;8.642;2022-09-12T04:18:25;13.00;99.90
29891;DHT22;16759;49.540;8.642;2022-09-12T04:20:51;13.00;99.90
29891;DHT22;16759;49.540;8.642;2022-09-12T04:23:17;13.10;99.90
29891;DHT22;16759;49.540;8.642;2022-09-12T04:25:43;13.10;99.90
29891;DHT22;16759;49.540;8.642;2022-09-12T04:28:09;13.20;99.90
29891;DHT22;16759;49.540;8.642;2022-09-12T04:30:37;13.20;99.90
29891;DHT22;16759;49.540;8.642;2022-09-12T04:33:02;13.20;99.90
29891;DHT22;16759;49.540;8.642;2022-09-12T04:35:28;13.30;99.90
29891;DHT22;16759;49.540;8.642;2022-09-12T04:37:53;13.30;99.90
29891;DHT22;16759;49.540;8.642;2022-09-12T04:40:19;13.30;99.90
29891;DHT22;16759;49.540;8.642;2022-09-12T04:42:45;13.40;99.90
29891;DHT22;16759;49.540;8.642;2022-09-12T04:45:10;13.50;99.90
29891;DHT22;16759;49.540;8.642;2022-09-12T04:47:37;13.50;99.90
29891;DHT22;16759;49.540;8.642;2022-09-12T04:50:02;13.60;99.90
29891;DHT22;16759;49.540;8.642;2022-09-12T04:52:28;13.90;99.90
29891;DHT22;16759;49.540;8.642;2022-09-12T04:54:56;13.90;99.90
29891;DHT22;16759;49.540;8.642;2022-09-12T04:57:21;13.80;99.90
29891;DHT22;16759;49.540;8.642;2022-09-12T04:59:50;13.80;99.90
29891;DHT22;16759;49.540;8.642;2022-09-12T05:02:15;14.00;99.90
29891;DHT22;16759;49.540;8.642;2022-09-12T05:04:43;14.20;99.90
29891;DHT22;16759;49.540;8.642;2022-09-12T05:07:11;14.10;99.90
29891;DHT22;16759;49.540;8.642;2022-09-12T05:09:39;13.90;99.90
29891;DHT22;16759;49.540;8.642;2022-09-12T05:12:04;13.80;99.90
29891;DHT22;16759;49.540;8.642;2022-09-12T05:14:30;14.10;99.90
29891;DHT22;16759;49.540;8.642;2022-09-12T05:16:56;14.20;99.90
29891;DHT22;16759;49.540;8.642;2022-09-12T05:19:24;14.20;99.90
29891;DHT22;16759;49.540;8.642;2022-09-12T05:21:50;14.10;99.90
29891;DHT22;16759;49.540;8.642;2022-09-12T05:24:15;14.20;99.90
29891;DHT22;16759;49.540;8.642;2022-09-12T05:26:41;14.20;99.90
29891;DHT22;16759;49.540;8.642;2022-09-12T05:29:09;14.30;99.90
29891;DHT22;16759;49.540;8.642;2022-09-12T05:31:34;14.60;99.90
29891;DHT22;16759;49.540;8.642;2022-09-12T05:34:00;14.40;99.90
29891;DHT22;16759;49.540;8.642;2022-09-12T05:36:29;14.40;99.90
29891;DHT22;16759;49.540;8.642;2022-09-12T05:38:54;14.50;99.90
29891;DHT22;16759;49.540;8.642;2022-09-12T05:41:24;14.40;99.90
29891;DHT22;16759;49.540;8.642;2022-09-12T05:43:53;14.30;99.90
29891;DHT22;16759;49.540;8.642;2022-09-12T05:46:22;14.50;99.90
29891;DHT22;16759;49.540;8.642;2022-09-12T05:48:50;14.80;99.90
29891;DHT22;16759;49.540;8.642;2022-09-12T05:51:20;14.70;99.90
29891;DHT22;16759;49.540;8.642;2022-09-12T05:53:49;14.70;99.90
29891;DHT22;16759;49.540;8.642;2022-09-12T05:56:20;14.60;99.90
29891;DHT22;16759;49.540;8.642;2022-09-12T05:58:51;14.60;99.90
29891;DHT22;16759;49.540;8.642;2022-09-12T06:01:17;14.70;99.90
29891;DHT22;16759;49.540;8.642;2022-09-12T06:03:44;14.70;99.90
29891;DHT22;16759;49.540;8.642;2022-09-12T06:06:10;15.00;99.90
29891;DHT22;16759;49.540;8.642;2022-09-12T06:08:39;15.00;99.90
29891;DHT22;16759;49.540;8.642;2022-09-12T06:11:05;15.20;99.90
29891;DHT22;16759;49.540;8.642;2022-09-12T06:13:31;15.20;99.90
29891;DHT22;16759;49.540;8.642;2022-09-12T06:16:02;15.20;99.90
29891;DHT22;16759;49.540;8.642;2022-09-12T06:18:27;15.30;99.90
29891;DHT22;16759;49.540;8.642;2022-09-12T06:20:52;15.40;99.90
29891;DHT22;16759;49.540;8.642;2022-09-12T06:23:20;15.40;99.90
29891;DHT22;16759;49.540;8.642;2022-09-12T06:25:48;15.50;99.90
29891;DHT22;16759;49.540;8.642;2022-09-12T06:28:14;15.70;99.90
29891;DHT22;16759;49.540;8.642;2022-09-12T06:30:40;15.80;99.90
29891;DHT22;16759;49.540;8.642;2022-09-12T06:33:05;15.90;99.90
29891;DHT22;16759;49.540;8.642;2022-09-12T06:35:34;15.90;99.90
29891;DHT22;16759;49.540;8.642;2022-09-12T06:37:59;15.90;99.90
29891;DHT22;16759;49.540;8.642;2022-09-12T06:40:25;15.80;99.90
29891;DHT22;16759;49.540;8.642;2022-09-12T06:42:51;15.90;99.90
29891;DHT22;16759;49.540;8.642;2022-09-12T06:45:17;16.00;99.90
29891;DHT22;16759;49.540;8.642;2022-09-12T06:47:44;16.20;99.90
29891;DHT22;16759;49.540;8.642;2022-09-12T06:50:09;16.30;99.90
29891;DHT22;16759;49.540;8.642;2022-09-12T06:52:35;16.40;99.90
29891;DHT22;16759;49.540;8.642;2022-09-12T06:55:00;16.40;99.90
29891;DHT22;16759;49.540;8.642;2022-09-12T06:57:26;16.60;99.90
29891;DHT22;16759;49.540;8.642;2022-09-12T06:59:54;16.60;99.90
29891;DHT22;16759;49.540;8.642;2022-09-12T07:02:20;16.60;99.90
29891;DHT22;16759;49.540;8.642;2022-09-12T07:04:45;16.70;99.90
29891;DHT22;16759;49.540;8.642;2022-09-12T07:07:11;16.70;99.90
29891;DHT22;16759;49.540;8.642;2022-09-12T07:09:36;16.80;99.90
29891;DHT22;16759;49.540;8.642;2022-09-12T07:12:02;16.90;99.90
29891;DHT22;16759;49.540;8.642;2022-09-12T07:14:28;17.00;99.90
29891;DHT22;16759;49.540;8.642;2022-09-12T07:16:54;17.10;99.90
29891;DHT22;16759;49.540;8.642;2022-09-12T07:19:19;17.10;99.90
29891;DHT22;16759;49.540;8.642;2022-09-12T07:21:45;17.20;99.90
29891;DHT22;16759;49.540;8.642;2022-09-12T07:24:10;17.30;99.90
29891;DHT22;16759;49.540;8.642;2022-09-12T07:26:38;17.40;99.90
29891;DHT22;16759;49.540;8.642;2022-09-12T07:29:07;17.30;99.90
29891;DHT22;16759;49.540;8.642;2022-09-12T07:31:36;17.10;99.90
29891;DHT22;16759;49.540;8.642;2022-09-12T07:34:05;17.50;99.90
29891;DHT22;16759;49.540;8.642;2022-09-12T07:36:31;17.60;99.90
29891;DHT22;16759;49.540;8.642;2022-09-12T07:38:56;17.60;99.90
29891;DHT22;16759;49.540;8.642;2022-09-12T07:41:26;17.70;99.90
29891;DHT22;16759;49.540;8.642;2022-09-12T07:43:52;17.60;99.90
29891;DHT22;16759;49.540;8.642;2022-09-12T07:46:18;17.80;99.90
29891;DHT22;16759;49.540;8.642;2022-09-12T07:48:43;17.80;99.90
29891;DHT22;16759;49.540;8.642;2022-09-12T07:51:15;17.70;99.90
29891;DHT22;16759;49.540;8.642;2022-09-12T07:53:41;17.80;99.90
29891;DHT22;16759;49.540;8.642;2022-09-12T07:56:08;17.80;99.90
29891;DHT22;16759;49.540;8.642;2022-09-12T07:58:34;18.00;99.90
29891;DHT22;16759;49.540;8.642;2022-09-12T08:01:01;17.60;99.90
29891;DHT22;16759;49.540;8.642;2022-09-12T08:03:27;17.70;99.90
29891;DHT22;16759;49.540;8.642;2022-09-12T08:05:53;17.90;99.90
29891;DHT22;16759;49.540;8.642;2022-09-12T08:08:19;18.10;99.90
29891;DHT22;16759;49.540;8.642;2022-09-12T08:10:44;18.40;99.90
29891;DHT22;16759;49.540;8.642;2022-09-12T08:13:10;18.40;99.90
29891;DHT22;16759;49.540;8.642;2022-09-12T08:15:38;18.50;99.90
29891;DHT22;16759;49.540;8.642;2022-09-12T08:18:06;18.80;99.90
29891;DHT22;16759;49.540;8.642;2022-09-12T08:20:31;18.70;99.90
29891;DHT22;16759;49.540;8.642;2022-09-12T08:22:57;18.90;99.90
29891;DHT22;16759;49.540;8.642;2022-09-12T08:25:22;18.80;99.90
29891;DHT22;16759;49.540;8.642;2022-09-12T08:27:50;18.70;99.90
29891;DHT22;16759;49.540;8.642;2022-09-12T08:30:16;19.00;99.90
29891;DHT22;16759;49.540;8.642;2022-09-12T08:32:42;19.00;99.90
29891;DHT22;16759;49.540;8.642;2022-09-12T08:35:07;19.20;99.90
29891;DHT22;16759;49.540;8.642;2022-09-12T08:37:33;19.40;99.90
29891;DHT22;16759;49.540;8.642;2022-09-12T08:39:58;19.20;99.90
29891;DHT22;16759;49.540;8.642;2022-09-12T08:42:31;19.20;99.90
29891;DHT22;16759;49.540;8.642;2022-09-12T08:45:22;19.30;99.90
29891;DHT22;16759;49.540;8.642;2022-09-12T08:47:50;19.30;99.90
29891;DHT22;16759;49.540;8.642;2022-09-12T08:50:19;19.30;99.90
29891;DHT22;16759;49.540;8.642;2022-09-12T08:55:34;19.50;99.90
29891;DHT22;16759;49.540;8.642;2022-09-12T08:58:00;19.60;99.90
29891;DHT22;16759;49.540;8.642;2022-09-12T09:00:29;19.60;99.90
29891;DHT22;16759;49.540;8.642;2022-09-12T09:03:05;19.80;99.90
29891;DHT22;16759;49.540;8.642;2022-09-12T09:08:07;20.00;99.90
29891;DHT22;16759;49.540;8.642;2022-09-12T09:10:47;20.00;99.90
29891;DHT22;16759;49.540;8.642;2022-09-12T09:18:40;20.40;99.90
29891;DHT22;16759;49.540;8.642;2022-09-12T09:21:14;20.60;99.90
29891;DHT22;16759;49.540;8.642;2022-09-12T09:23:44;20.30;99.90
29891;DHT22;16759;49.540;8.642;2022-09-12T09:26:14;20.50;99.90
29891;DHT22;16759;49.540;8.642;2022-09-12T09:31:17;20.80;99.90
29891;DHT22;16759;49.540;8.642;2022-09-12T09:33:43;21.00;99.90
29891;DHT22;16759;49.540;8.642;2022-09-12T09:38:45;21.40;99.90
29891;DHT22;16759;49.540;8.642;2022-09-12T09:41:33;21.40;99.90
29891;DHT22;16759;49.540;8.642;2022-09-12T09:44:01;21.40;99.90
29891;DHT22;16759;49.540;8.642;2022-09-12T09:46:27;21.80;99.90
29891;DHT22;16759;49.540;8.642;2022-09-12T09:48:55;21.40;99.90
29891;DHT22;16759;49.540;8.642;2022-09-12T09:51:24;21.40;99.90
29891;DHT22;16759;49.540;8.642;2022-09-12T09:56:29;21.50;99.90
29891;DHT22;16759;49.540;8.642;2022-09-12T09:59:07;21.60;99.90
29891;DHT22;16759;49.540;8.642;2022-09-12T10:01:32;21.80;99.90
29891;DHT22;16759;49.540;8.642;2022-09-12T10:04:00;21.90;99.90
29891;DHT22;16759;49.540;8.642;2022-09-12T10:06:30;21.70;99.90
29891;DHT22;16759;49.540;8.642;2022-09-12T10:09:06;21.70;99.90
29891;DHT22;16759;49.540;8.642;2022-09-12T10:11:32;22.00;99.90
29891;DHT22;16759;49.540;8.642;2022-09-12T10:13:57;22.30;99.90
29891;DHT22;16759;49.540;8.642;2022-09-12T10:16:31;22.20;99.90
29891;DHT22;16759;49.540;8.642;2022-09-12T10:19:02;22.20;99.90
29891;DHT22;16759;49.540;8.642;2022-09-12T10:24:00;22.00;99.90
29891;DHT22;16759;49.540;8.642;2022-09-12T10:26:30;22.10;99.90
29891;DHT22;16759;49.540;8.642;2022-09-12T10:28:56;22.50;99.90
29891;DHT22;16759;49.540;8.642;2022-09-12T10:31:24;22.30;99.90
29891;DHT22;16759;49.540;8.642;2022-09-12T10:33:53;22.30;99.90
29891;DHT22;16759;49.540;8.642;2022-09-12T10:36:20;22.50;99.90
29891;DHT22;16759;49.540;8.642;2022-09-12T10:38:53;22.60;99.90
29891;DHT22;16759;49.540;8.642;2022-09-12T10:41:19;22.50;99.90
29891;DHT22;16759;49.540;8.642;2022-09-12T10:43:46;22.60;99.90
29891;DHT22;16759;49.540;8.642;2022-09-12T10:48:40;22.70;99.90
29891;DHT22;16759;49.540;8.642;2022-09-12T10:51:10;22.80;99.90
29891;DHT22;16759;49.540;8.642;2022-09-12T10:53:38;22.90;99.90
29891;DHT22;16759;49.540;8.642;2022-09-12T11:01:11;22.70;99.90
29891;DHT22;16759;49.540;8.642;2022-09-12T11:03:46;22.80;99.90
29891;DHT22;16759;49.540;8.642;2022-09-12T11:06:15;22.80;99.90
29891;DHT22;16759;49.540;8.642;2022-09-12T11:08:47;23.00;99.90
29891;DHT22;16759;49.540;8.642;2022-09-12T11:11:28;23.10;99.90
29891;DHT22;16759;49.540;8.642;2022-09-12T11:16:24;23.10;99.90
29891;DHT22;16759;49.540;8.642;2022-09-12T11:24:15;23.10;99.90
29891;DHT22;16759;49.540;8.642;2022-09-12T11:29:18;23.40;99.90
29891;DHT22;16759;49.540;8.642;2022-09-12T11:31:51;23.30;99.90
29891;DHT22;16759;49.540;8.642;2022-09-12T11:37:06;23.70;99.90
29891;DHT22;16759;49.540;8.642;2022-09-12T11:39:37;23.90;99.90
29891;DHT22;16759;49.540;8.642;2022-09-12T11:42:03;24.10;99.90
29891;DHT22;16759;49.540;8.642;2022-09-12T11:44:35;23.90;99.90
29891;DHT22;16759;49.540;8.642;2022-09-12T11:47:04;23.80;99.90
29891;DHT22;16759;49.540;8.642;2022-09-12T11:49:32;23.60;99.90
29891;DHT22;16759;49.540;8.642;2022-09-12T11:52:10;23.60;99.90
29891;DHT22;16759;49.540;8.642;2022-09-12T12:02:34;24.50;99.90
29891;DHT22;16759;49.540;8.642;2022-09-12T12:07:28;24.30;99.90
29891;DHT22;16759;49.540;8.642;2022-09-12T12:09:56;24.60;99.90
29891;DHT22;16759;49.540;8.642;2022-09-12T12:12:23;24.50;99.90
29891;DHT22;16759;49.540;8.642;2022-09-12T12:14:49;24.80;99.90
29891;DHT22;16759;49.540;8.642;2022-09-12T12:17:16;25.00;99.90
29891;DHT22;16759;49.540;8.642;2022-09-12T12:19:42;25.20;99.90
29891;DHT22;16759;49.540;8.642;2022-09-12T12:24:53;25.60;99.90
29891;DHT22;16759;49.540;8.642;2022-09-12T12:27:23;25.30;99.90
29891;DHT22;16759;49.540;8.642;2022-09-12T12:29:49;25.40;99.90
29891;DHT22;16759;49.540;8.642;2022-09-12T12:32:19;25.40;99.90
29891;DHT22;16759;49.540;8.642;2022-09-12T12:34:45;25.40;99.90
29891;DHT22;16759;49.540;8.642;2022-09-12T12:42:09;27.00;99.90
29891;DHT22;16759;49.540;8.642;2022-09-12T12:47:25;30.10;99.90
29891;DHT22;16759;49.540;8.642;2022-09-12T12:52:28;32.70;99.90
29891;DHT22;16759;49.540;8.642;2022-09-12T12:54:55;32.40;99.90
29891;DHT22;16759;49.540;8.642;2022-09-12T12:57:23;30.70;99.90
29891;DHT22;16759;49.540;8.642;2022-09-12T13:02:31;31.90;98.30
29891;DHT22;16759;49.540;8.642;2022-09-12T13:04:59;32.80;95.90
29891;DHT22;16759;49.540;8.642;2022-09-12T13:07:37;32.50;96.30
29891;DHT22;16759;49.540;8.642;2022-09-12T13:10:04;33.70;94.70
29891;DHT22;16759;49.540;8.642;2022-09-12T13:12:33;35.20;93.30
29891;DHT22;16759;49.540;8.642;2022-09-12T13:15:00;35.70;92.20
29891;DHT22;16759;49.540;8.642;2022-09-12T13:17:31;33.90;90.00
29891;DHT22;16759;49.540;8.642;2022-09-12T13:22:39;33.70;92.80
29891;DHT22;16759;49.540;8.642;2022-09-12T13:27:55;33.60;87.70
29891;DHT22;16759;49.540;8.642;2022-09-12T13:30:21;34.60;86.00
29891;DHT22;16759;49.540;8.642;2022-09-12T13:32:46;35.40;85.40
29891;DHT22;16759;49.540;8.642;2022-09-12T13:35:12;35.60;84.10
29891;DHT22;16759;49.540;8.642;2022-09-12T13:37:44;36.10;80.80
29891;DHT22;16759;49.540;8.642;2022-09-12T13:42:47;35.90;79.90
29891;DHT22;16759;49.540;8.642;2022-09-12T13:45:20;35.70;84.20
29891;DHT22;16759;49.540;8.642;2022-09-12T13:47:48;35.10;84.80
29891;DHT22;16759;49.540;8.642;2022-09-12T13:50:17;34.70;86.00
29891;DHT22;16759;49.540;8.642;2022-09-12T13:52:44;36.90;84.20
29891;DHT22;16759;49.540;8.642;2022-09-12T13:55:17;37.50;77.60
29891;DHT22;16759;49.540;8.642;2022-09-12T13:57:54;35.20;78.30
29891;DHT22;16759;49.540;8.642;2022-09-12T14:00:20;36.00;78.30
29891;DHT22;16759;49.540;8.642;2022-09-12T14:02:46;35.30;79.70
29891;DHT22;16759;49.540;8.642;2022-09-12T14:05:16;34.10;79.50
29891;DHT22;16759;49.540;8.642;2022-09-12T14:10:20;35.70;75.90
29891;DHT22;16759;49.540;8.642;2022-09-12T14:12:47;34.20;80.80
29891;DHT22;16759;49.540;8.642;2022-09-12T14:15:16;34.80;79.60
29891;DHT22;16759;49.540;8.642;2022-09-12T14:17:47;35.10;75.00
29891;DHT22;16759;49.540;8.642;2022-09-12T14:20:16;36.20;76.40
29891;DHT22;16759;49.540;8.642;2022-09-12T14:22:43;36.20;74.00
29891;DHT22;16759;49.540;8.642;2022-09-12T14:25:15;35.30;75.60
29891;DHT22;16759;49.540;8.642;2022-09-12T14:27:47;35.10;74.20
29891;DHT22;16759;49.540;8.642;2022-09-12T14:32:41;34.50;77.60
29891;DHT22;16759;49.540;8.642;2022-09-12T14:37:35;36.00;77.00
29891;DHT22;16759;49.540;8.642;2022-09-12T14:40:01;36.20;77.20
29891;DHT22;16759;49.540;8.642;2022-09-12T14:42:29;36.80;75.00
29891;DHT22;16759;49.540;8.642;2022-09-12T14:44:55;35.70;77.10
29891;DHT22;16759;49.540;8.642;2022-09-12T14:47:23;35.70;75.80
29891;DHT22;16759;49.540;8.642;2022-09-12T14:49:49;36.60;73.00
29891;DHT22;16759;49.540;8.642;2022-09-12T14:52:28;37.00;74.20
29891;DHT22;16759;49.540;8.642;2022-09-12T14:54:55;35.00;71.80
29891;DHT22;16759;49.540;8.642;2022-09-12T14:57:30;34.90;73.40
29891;DHT22;16759;49.540;8.642;2022-09-12T15:02:37;34.30;74.70
29891;DHT22;16759;49.540;8.642;2022-09-12T15:09:54;36.10;69.00
29891;DHT22;16759;49.540;8.642;2022-09-12T15:12:19;36.10;71.30
29891;DHT22;16759;49.540;8.642;2022-09-12T15:14:47;36.80;69.50
29891;DHT22;16759;49.540;8.642;2022-09-12T15:17:13;36.70;72.60
29891;DHT22;16759;49.540;8.642;2022-09-12T15:19:40;36.70;71.10
29891;DHT22;16759;49.540;8.642;2022-09-12T15:22:08;36.40;70.50
29891;DHT22;16759;49.540;8.642;2022-09-12T15:24:34;35.60;69.70
29891;DHT22;16759;49.540;8.642;2022-09-12T15:27:00;35.90;70.00
29891;DHT22;16759;49.540;8.642;2022-09-12T15:29:25;35.40;70.90
29891;DHT22;16759;49.540;8.642;2022-09-12T15:31:51;35.50;70.00
29891;DHT22;16759;49.540;8.642;2022-09-12T15:34:19;36.60;68.80
29891;DHT22;16759;49.540;8.642;2022-09-12T15:36:47;36.20;65.60
29891;DHT22;16759;49.540;8.642;2022-09-12T15:39:12;36.70;64.30
29891;DHT22;16759;49.540;8.642;2022-09-12T15:41:40;36.10;65.30
29891;DHT22;16759;49.540;8.642;2022-09-12T15:44:06;36.60;66.50
29891;DHT22;16759;49.540;8.642;2022-09-12T15:46:38;36.50;64.10
29891;DHT22;16759;49.540;8.642;2022-09-12T15:49:04;36.60;65.10
29891;DHT22;16759;49.540;8.642;2022-09-12T15:51:29;37.00;64.70
29891;DHT22;16759;49.540;8.642;2022-09-12T15:53:54;36.40;65.00
29891;DHT22;16759;49.540;8.642;2022-09-12T15:56:20;37.30;65.20
29891;DHT22;16759;49.540;8.642;2022-09-12T15:58:46;37.90;63.30
29891;DHT22;16759;49.540;8.642;2022-09-12T16:01:13;36.90;63.10
29891;DHT22;16759;49.540;8.642;2022-09-12T16:03:38;37.30;63.00
29891;DHT22;16759;49.540;8.642;2022-09-12T16:06:04;36.60;64.50
29891;DHT22;16759;49.540;8.642;2022-09-12T16:08:31;37.20;63.30
29891;DHT22;16759;49.540;8.642;2022-09-12T16:10:58;37.40;62.50
29891;DHT22;16759;49.540;8.642;2022-09-12T16:13:24;36.90;63.80
29891;DHT22;16759;49.540;8.642;2022-09-12T16:15:50;37.30;63.00
29891;DHT22;16759;49.540;8.642;2022-09-12T16:18:15;37.50;63.00
29891;DHT22;16759;49.540;8.642;2022-09-12T16:20:41;37.20;63.40
29891;DHT22;16759;49.540;8.642;2022-09-12T16:23:10;37.30;62.60
29891;DHT22;16759;49.540;8.642;2022-09-12T16:25:38;37.40;62.30
29891;DHT22;16759;49.540;8.642;2022-09-12T16:28:06;37.40;62.70
29891;DHT22;16759;49.540;8.642;2022-09-12T16:30:32;36.90;65.20
29891;DHT22;16759;49.540;8.642;2022-09-12T16:32:57;37.30;64.40
29891;DHT22;16759;49.540;8.642;2022-09-12T16:35:23;37.30;63.50
29891;DHT22;16759;49.540;8.642;2022-09-12T16:37:48;37.00;64.40
29891;DHT22;16759;49.540;8.642;2022-09-12T16:40:14;37.30;62.10
29891;DHT22;16759;49.540;8.642;2022-09-12T16:42:43;36.70;64.90
29891;DHT22;16759;49.540;8.642;2022-09-12T16:45:09;36.70;64.50
29891;DHT22;16759;49.540;8.642;2022-09-12T16:47:35;36.20;63.10
29891;DHT22;16759;49.540;8.642;2022-09-12T16:50:00;35.40;67.40
29891;DHT22;16759;49.540;8.642;2022-09-12T16:52:26;34.90;67.10
29891;DHT22;16759;49.540;8.642;2022-09-12T16:54:55;34.50;67.40
29891;DHT22;16759;49.540;8.642;2022-09-12T16:57:21;34.40;67.40
29891;DHT22;16759;49.540;8.642;2022-09-12T16:59:47;33.50;67.20
29891;DHT22;16759;49.540;8.642;2022-09-12T17:02:16;33.40;66.80
29891;DHT22;16759;49.540;8.642;2022-09-12T17:04:41;33.00;66.50
29891;DHT22;16759;49.540;8.642;2022-09-12T17:07:09;30.80;70.70
29891;DHT22;16759;49.540;8.642;2022-09-12T17:09:35;28.80;78.80
29891;DHT22;16759;49.540;8.642;2022-09-12T17:12:02;27.70;82.80
29891;DHT22;16759;49.540;8.642;2022-09-12T17:14:28;27.00;86.60
29891;DHT22;16759;49.540;8.642;2022-09-12T17:16:53;26.60;90.50
29891;DHT22;16759;49.540;8.642;2022-09-12T17:19:21;26.30;91.10
29891;DHT22;16759;49.540;8.642;2022-09-12T17:21:50;26.00;93.30
29891;DHT22;16759;49.540;8.642;2022-09-12T17:24:16;25.50;96.60
29891;DHT22;16759;49.540;8.642;2022-09-12T17:26:42;24.90;97.70
29891;DHT22;16759;49.540;8.642;2022-09-12T17:29:07;24.70;99.10
29891;DHT22;16759;49.540;8.642;2022-09-12T17:31:35;24.60;99.90
29891;DHT22;16759;49.540;8.642;2022-09-12T17:34:00;24.40;99.90
29891;DHT22;16759;49.540;8.642;2022-09-12T17:36:26;24.20;99.90
29891;DHT22;16759;49.540;8.642;2022-09-12T17:38:56;24.00;99.90
29891;DHT22;16759;49.540;8.642;2022-09-12T17:41:26;23.80;99.90
29891;DHT22;16759;49.540;8.642;2022-09-12T17:43:53;23.60;99.90
29891;DHT22;16759;49.540;8.642;2022-09-12T17:46:23;23.50;99.90
29891;DHT22;16759;49.540;8.642;2022-09-12T17:48:50;23.30;99.90
29891;DHT22;16759;49.540;8.642;2022-09-12T17:51:15;23.20;99.90